createdAt,value
2023-03-18T00:01:12.514Z,38.45
2023-03-18T00:03:41.130Z,38.51
2023-03-18T00:06:12.076Z,38.50
2023-03-18T00:08:41.558Z,38.63
2023-03-18T00:11:11.373Z,38.74
2023-03-18T00:13:41.702Z,38.78
2023-03-18T00:16:12.572Z,38.93
2023-03-18T00:18:42.054Z,38.92
2023-03-18T00:21:11.225Z,38.89
2023-03-18T00:23:39.945Z,39.08
2023-03-18T00:26:09.206Z,38.88
2023-03-18T00:28:38.322Z,38.98
2023-03-18T00:31:10.409Z,38.96
2023-03-18T00:33:40.247Z,39.11
2023-03-18T00:36:10.426Z,39.44
2023-03-18T00:38:39.486Z,39.33
2023-03-18T00:41:12.397Z,39.47
2023-03-18T00:43:49.540Z,40.03
2023-03-18T00:46:22.506Z,40.16
2023-03-18T00:48:50.851Z,40.03
2023-03-18T00:51:20.787Z,39.97
2023-03-18T00:53:52.042Z,40.10
2023-03-18T00:56:25.824Z,39.89
2023-03-18T00:58:54.607Z,40.16
2023-03-18T01:01:25.350Z,39.78
2023-03-18T01:03:55.073Z,40.08
2023-03-18T01:06:25.810Z,40.16
2023-03-18T01:08:54.281Z,40.26
2023-03-18T01:11:23.721Z,40.55
2023-03-18T01:13:52.112Z,40.62
2023-03-18T01:16:21.169Z,40.79
2023-03-18T01:18:51.334Z,40.90
2023-03-18T01:21:19.777Z,40.88
2023-03-18T01:23:48.098Z,40.84
2023-03-18T01:26:16.976Z,41.38
2023-03-18T01:28:45.340Z,41.12
2023-03-18T01:31:13.971Z,41.00
2023-03-18T01:33:42.710Z,41.12
2023-03-18T01:36:13.909Z,41.36
2023-03-18T01:38:42.564Z,41.29
2023-03-18T01:41:12.593Z,41.64
2023-03-18T01:43:43.737Z,41.67
2023-03-18T01:46:38.139Z,41.96
2023-03-18T01:49:12.703Z,41.89
2023-03-18T01:51:46.407Z,41.89
2023-03-18T01:54:15.452Z,42.09
2023-03-18T01:56:47.654Z,41.83
2023-03-18T01:59:17.138Z,42.12
2023-03-18T02:01:53.275Z,42.00
2023-03-18T02:04:24.313Z,42.15
2023-03-18T02:06:54.445Z,41.91
2023-03-18T02:09:23.152Z,42.25
2023-03-18T02:14:23.957Z,42.60
2023-03-18T02:16:58.536Z,42.56
2023-03-18T02:19:38.301Z,42.73
2023-03-18T02:22:17.278Z,42.96
2023-03-18T02:24:54.641Z,42.98
2023-03-18T02:27:26.523Z,42.93
2023-03-18T02:29:58.557Z,42.90
2023-03-18T02:32:29.331Z,42.91
2023-03-18T02:34:58.531Z,43.20
2023-03-18T02:37:26.882Z,43.04
2023-03-18T02:39:55.182Z,43.24
2023-03-18T02:42:33.021Z,43.23
2023-03-18T02:45:01.510Z,43.33
2023-03-18T02:47:32.488Z,43.40
2023-03-18T02:50:01.026Z,43.53
2023-03-18T02:52:29.726Z,43.52
2023-03-18T02:54:59.405Z,43.64
2023-03-18T02:57:27.770Z,43.67
2023-03-18T02:59:57.796Z,43.63
2023-03-18T03:02:26.529Z,43.72
2023-03-18T03:04:54.856Z,43.92
2023-03-18T03:07:27.265Z,43.60
2023-03-18T03:09:56.979Z,43.62
2023-03-18T03:12:25.462Z,43.78
2023-03-18T03:14:53.802Z,43.73
2023-03-18T03:17:24.348Z,43.85
2023-03-18T03:19:52.924Z,43.93
2023-03-18T03:22:21.205Z,43.92
2023-03-18T03:24:50.181Z,43.99
2023-03-18T03:27:18.802Z,43.87
2023-03-18T03:29:47.151Z,43.87
2023-03-18T03:32:16.107Z,43.80
2023-03-18T03:34:48.623Z,43.97
2023-03-18T03:37:17.129Z,44.08
2023-03-18T03:39:45.985Z,44.12
2023-03-18T03:42:14.450Z,44.13
2023-03-18T03:44:42.708Z,44.22
2023-03-18T03:47:11.520Z,44.37
2023-03-18T03:49:39.954Z,44.48
2023-03-18T03:52:09.782Z,44.72
2023-03-18T03:54:38.325Z,44.92
2023-03-18T03:57:06.645Z,44.91
2023-03-18T03:59:34.957Z,45.07
2023-03-18T04:02:03.763Z,45.11
2023-03-18T04:04:32.864Z,45.04
2023-03-18T04:07:01.349Z,44.98
2023-03-18T04:09:31.151Z,45.06
2023-03-18T04:11:59.488Z,44.94
2023-03-18T04:14:27.785Z,44.76
2023-03-18T04:16:58.311Z,44.92
2023-03-18T04:19:27.385Z,44.89
2023-03-18T04:21:56.841Z,45.03
2023-03-18T04:24:26.368Z,45.10
2023-03-18T04:26:56.088Z,45.30
2023-03-18T04:29:24.647Z,45.40
2023-03-18T04:31:52.996Z,45.35
2023-03-18T04:34:22.442Z,45.43
2023-03-18T04:36:50.865Z,45.57
2023-03-18T04:39:19.369Z,45.54
2023-03-18T04:41:47.807Z,45.72
2023-03-18T04:44:18.084Z,45.80
2023-03-18T04:46:46.487Z,45.71
2023-03-18T04:49:14.858Z,45.79
2023-03-18T04:51:43.793Z,45.93
2023-03-18T04:54:12.558Z,45.87
2023-03-18T04:56:41.564Z,46.04
2023-03-18T04:59:09.991Z,46.13
2023-03-18T05:01:39.771Z,46.07
2023-03-18T05:04:08.477Z,46.17
2023-03-18T05:06:37.438Z,46.13
2023-03-18T05:09:06.693Z,46.13
2023-03-18T05:11:35.246Z,46.28
2023-03-18T05:14:03.957Z,46.42
2023-03-18T05:16:32.641Z,46.35
2023-03-18T05:19:02.428Z,46.35
2023-03-18T05:21:30.768Z,46.49
2023-03-18T05:23:59.032Z,46.58
2023-03-18T05:26:27.313Z,46.65
2023-03-18T05:28:55.764Z,46.78
2023-03-18T05:31:24.949Z,46.76
2023-03-18T05:33:53.374Z,47.04
2023-03-18T05:36:23.768Z,47.00
2023-03-18T05:38:52.173Z,46.89
2023-03-18T05:41:20.493Z,47.05
2023-03-18T05:43:49.060Z,47.02
2023-03-18T05:46:17.756Z,47.15
2023-03-18T05:48:46.149Z,47.16
2023-03-18T05:51:14.549Z,46.95
2023-03-18T05:53:44.780Z,46.91
2023-03-18T05:56:15.004Z,46.95
2023-03-18T05:58:43.285Z,47.01
2023-03-18T06:01:12.130Z,46.98
2023-03-18T06:03:41.190Z,46.74
2023-03-18T06:06:10.022Z,46.76
2023-03-18T06:08:38.441Z,46.76
2023-03-18T06:11:08.708Z,46.92
2023-03-18T06:13:37.654Z,47.00
2023-03-18T06:16:07.479Z,46.83
2023-03-18T06:18:36.231Z,46.93
2023-03-18T06:21:04.885Z,47.17
2023-03-18T06:23:34.006Z,47.44
2023-03-18T06:26:02.268Z,47.46
2023-03-18T06:28:32.689Z,47.60
2023-03-18T06:31:01.049Z,47.71
2023-03-18T06:33:30.141Z,47.94
2023-03-18T06:36:00.328Z,47.98
2023-03-18T06:38:29.002Z,48.26
2023-03-18T06:40:57.511Z,48.45
2023-03-18T06:43:26.025Z,48.42
2023-03-18T06:45:55.901Z,48.28
2023-03-18T06:48:25.233Z,48.38
2023-03-18T06:50:54.520Z,48.27
2023-03-18T06:53:23.101Z,48.49
2023-03-18T06:55:51.462Z,48.13
2023-03-18T06:58:20.089Z,48.13
2023-03-18T07:00:48.690Z,48.22
2023-03-18T07:03:18.626Z,48.26
2023-03-18T07:05:47.369Z,48.39
2023-03-18T07:08:16.946Z,48.38
2023-03-18T07:10:45.288Z,48.65
2023-03-18T07:13:15.519Z,48.62
2023-03-18T07:15:45.220Z,48.84
2023-03-18T07:18:14.270Z,48.68
2023-03-18T07:20:45.028Z,49.11
2023-03-18T07:23:13.293Z,48.81
2023-03-18T07:25:42.231Z,49.15
2023-03-18T07:28:10.493Z,49.09
2023-03-18T07:30:39.886Z,49.48
2023-03-18T07:33:08.974Z,49.44
2023-03-18T07:35:38.264Z,49.65
2023-03-18T07:38:08.088Z,49.31
2023-03-18T07:40:36.695Z,49.51
2023-03-18T07:43:05.521Z,49.27
2023-03-18T07:45:34.854Z,49.27
2023-03-18T07:48:03.236Z,49.43
2023-03-18T07:50:31.630Z,49.82
2023-03-18T07:53:00.014Z,49.75
2023-03-18T07:55:30.367Z,50.06
2023-03-18T07:57:59.789Z,50.02
2023-03-18T08:00:28.382Z,49.86
2023-03-18T08:02:56.708Z,49.82
2023-03-18T08:05:25.544Z,49.42
2023-03-18T08:07:53.831Z,49.37
2023-03-18T08:10:22.837Z,49.14
2023-03-18T08:12:54.064Z,48.82
2023-03-18T08:15:23.812Z,48.49
2023-03-18T08:17:52.951Z,47.50
2023-03-18T08:20:21.637Z,47.77
2023-03-18T08:22:50.206Z,47.87
2023-03-18T08:25:19.582Z,47.16
2023-03-18T08:27:47.918Z,47.07
2023-03-18T08:30:18.015Z,47.39
2023-03-18T08:32:46.672Z,48.04
2023-03-18T08:35:15.238Z,48.37
2023-03-18T08:37:43.979Z,48.15
2023-03-18T08:40:13.674Z,48.59
2023-03-18T08:42:42.109Z,48.44
2023-03-18T08:45:11.408Z,48.42
2023-03-18T08:47:41.524Z,48.35
2023-03-18T08:50:11.282Z,48.63
2023-03-18T08:52:41.366Z,49.03
2023-03-18T08:55:11.250Z,49.51
2023-03-18T08:57:39.596Z,49.66
2023-03-18T09:00:09.305Z,50.32
2023-03-18T09:02:37.642Z,50.22
2023-03-18T09:05:08.715Z,50.72
2023-03-18T09:07:37.495Z,51.16
2023-03-18T09:10:06.391Z,50.60
2023-03-18T09:12:36.303Z,50.61
2023-03-18T09:15:06.102Z,50.42
2023-03-18T09:17:53.450Z,50.41
2023-03-18T09:20:28.779Z,50.46
2023-03-18T09:22:58.145Z,50.49
2023-03-18T09:25:27.206Z,50.82
2023-03-18T09:27:56.266Z,50.80
2023-03-18T09:30:25.796Z,50.32
2023-03-18T09:32:54.517Z,50.75
2023-03-18T09:35:23.513Z,51.13
2023-03-18T09:37:54.166Z,50.49
2023-03-18T09:40:28.833Z,50.84
2023-03-18T09:43:09.235Z,51.18
2023-03-18T09:45:45.453Z,51.33
2023-03-18T09:48:43.679Z,51.24
2023-03-18T09:51:21.982Z,50.68
2023-03-18T09:53:55.830Z,50.64
2023-03-18T09:56:28.537Z,50.45
2023-03-18T09:59:03.506Z,50.27
2023-03-18T10:01:35.849Z,50.19
2023-03-18T10:04:07.651Z,50.37
2023-03-18T10:06:43.200Z,50.07
2023-03-18T10:09:22.175Z,50.03
2023-03-18T10:11:52.868Z,49.68
2023-03-18T10:14:36.406Z,50.03
2023-03-18T10:17:16.350Z,49.56
2023-03-18T10:19:48.681Z,49.38
2023-03-18T10:22:47.460Z,49.40
2023-03-18T10:25:25.948Z,49.17
2023-03-18T10:28:10.099Z,48.77
2023-03-18T10:31:01.501Z,48.62
2023-03-18T10:33:45.528Z,48.79
2023-03-18T10:36:19.881Z,48.39
2023-03-18T10:38:50.711Z,48.50
2023-03-18T10:41:26.432Z,47.99
2023-03-18T10:43:56.870Z,48.09
2023-03-18T10:46:28.575Z,48.23
2023-03-18T10:49:02.241Z,48.06
2023-03-18T10:51:32.858Z,48.21
2023-03-18T10:54:08.355Z,47.75
2023-03-18T10:56:38.269Z,47.75
2023-03-18T10:59:13.298Z,47.16
2023-03-18T11:01:43.015Z,46.54
2023-03-18T11:04:16.332Z,46.44
2023-03-18T11:06:48.618Z,46.41
2023-03-18T11:09:20.067Z,46.72
2023-03-18T11:11:51.879Z,46.92
2023-03-18T11:14:23.009Z,46.82
2023-03-18T11:16:59.132Z,46.59
2023-03-18T11:19:32.424Z,46.38
2023-03-18T11:22:14.221Z,46.38
2023-03-18T11:24:43.831Z,45.96
2023-03-18T11:27:39.444Z,45.53
2023-03-18T11:30:33.526Z,45.03
2023-03-18T11:33:07.450Z,45.42
2023-03-18T11:35:42.246Z,45.18
2023-03-18T11:38:17.408Z,43.81
2023-03-18T11:40:46.704Z,44.23
2023-03-18T11:43:21.248Z,44.62
2023-03-18T11:45:55.721Z,43.90
2023-03-18T11:48:34.510Z,44.01
2023-03-18T11:51:14.356Z,44.06
2023-03-18T11:53:54.219Z,44.13
2023-03-18T11:56:31.867Z,43.61
2023-03-18T11:59:31.740Z,43.09
2023-03-18T12:02:18.798Z,43.13
2023-03-18T12:05:14.011Z,43.38
2023-03-18T12:07:53.694Z,43.57
2023-03-18T12:10:29.863Z,43.53
2023-03-18T12:13:11.931Z,43.66
2023-03-18T12:15:49.458Z,43.28
2023-03-18T12:18:36.316Z,43.16
2023-03-18T12:21:17.245Z,43.27
2023-03-18T12:23:58.155Z,43.14
2023-03-18T12:26:35.461Z,43.17
2023-03-18T12:29:31.958Z,42.26
2023-03-18T12:32:11.289Z,42.30
2023-03-18T12:35:20.561Z,41.39
2023-03-18T12:38:03.164Z,42.32
2023-03-18T12:40:42.556Z,41.81
2023-03-18T12:43:41.244Z,41.84
2023-03-18T12:46:21.961Z,41.93
2023-03-18T12:48:55.828Z,41.64
2023-03-18T12:51:30.162Z,41.98
2023-03-18T12:54:04.664Z,41.93
2023-03-18T12:56:37.390Z,41.60
2023-03-18T12:59:10.831Z,41.56
2023-03-18T13:01:47.970Z,41.04
2023-03-18T13:04:22.952Z,40.55
2023-03-18T13:06:58.544Z,40.01
2023-03-18T13:09:34.882Z,39.64
2023-03-18T13:12:07.663Z,40.09
2023-03-18T13:14:51.018Z,40.10
2023-03-18T13:17:25.871Z,40.62
2023-03-18T13:19:58.037Z,40.30
2023-03-18T13:22:53.705Z,40.50
2023-03-18T13:25:34.837Z,39.90
2023-03-18T13:28:25.595Z,39.97
2023-03-18T13:31:07.535Z,39.59
2023-03-18T13:33:53.334Z,39.52
2023-03-18T13:36:44.747Z,39.64
2023-03-18T13:39:25.670Z,39.19
2023-03-18T13:42:18.314Z,38.73
2023-03-18T13:44:51.267Z,39.07
2023-03-18T13:47:23.670Z,38.79
2023-03-18T13:50:01.744Z,38.73
2023-03-18T13:52:37.876Z,38.62
2023-03-18T13:55:13.910Z,38.45
2023-03-18T13:57:49.720Z,38.22
2023-03-18T14:00:28.588Z,38.25
2023-03-18T14:03:17.370Z,38.62
2023-03-18T14:05:47.243Z,38.71
2023-03-18T14:08:51.945Z,37.83
2023-03-18T14:11:50.373Z,37.15
2023-03-18T14:14:42.782Z,37.87
2023-03-18T14:17:28.255Z,37.61
2023-03-18T14:19:57.589Z,36.85
2023-03-18T14:22:35.848Z,37.70
2023-03-18T14:25:24.461Z,37.39
2023-03-18T14:27:56.612Z,37.56
2023-03-18T14:31:01.507Z,37.62
2023-03-18T14:33:49.716Z,38.04
2023-03-18T14:36:18.293Z,38.21
2023-03-18T14:38:56.918Z,37.90
2023-03-18T14:41:29.573Z,38.12
2023-03-18T14:44:09.851Z,38.26
2023-03-18T14:46:43.195Z,38.27
2023-03-18T14:49:34.272Z,38.68
2023-03-18T14:52:07.497Z,38.40
2023-03-18T14:54:45.548Z,38.63
2023-03-18T14:57:13.821Z,38.70
2023-03-18T14:59:43.595Z,38.93
2023-03-18T15:02:24.210Z,38.77
2023-03-18T15:04:54.976Z,38.58
2023-03-18T15:07:30.676Z,39.02
2023-03-18T15:09:59.156Z,39.19
2023-03-18T15:12:30.749Z,38.96
2023-03-18T15:15:00.662Z,39.10
2023-03-18T15:17:29.017Z,38.80
2023-03-18T15:20:01.312Z,39.09
2023-03-18T15:22:32.790Z,38.89
2023-03-18T15:25:05.114Z,39.21
2023-03-18T15:27:36.736Z,39.10
2023-03-18T15:30:11.810Z,39.08
2023-03-18T15:32:46.600Z,39.29
2023-03-18T15:35:18.889Z,39.53
2023-03-18T15:37:48.606Z,39.79
2023-03-18T15:40:31.874Z,39.76
2023-03-18T15:43:05.478Z,39.87
2023-03-18T15:45:35.748Z,40.56
2023-03-18T15:48:09.272Z,40.48
2023-03-18T15:50:38.427Z,40.40
2023-03-18T15:53:19.258Z,40.40
2023-03-18T15:55:52.080Z,40.55
2023-03-18T15:58:24.222Z,40.79
2023-03-18T16:00:55.387Z,40.88
2023-03-18T16:03:25.711Z,41.11
2023-03-18T16:05:55.373Z,41.54
2023-03-18T16:08:24.692Z,41.84
2023-03-18T16:10:56.793Z,41.80
2023-03-18T16:13:28.013Z,41.96
2023-03-18T16:15:58.570Z,42.06
2023-03-18T16:18:27.260Z,41.93
2023-03-18T16:20:57.459Z,42.07
2023-03-18T16:23:25.783Z,42.13
2023-03-18T16:25:56.385Z,42.38
2023-03-18T16:28:26.257Z,42.79
2023-03-18T16:30:56.294Z,43.05
2023-03-18T16:33:26.987Z,43.27
2023-03-18T16:35:59.319Z,43.56
2023-03-18T16:38:28.681Z,43.79
2023-03-18T16:40:57.762Z,44.07
2023-03-18T16:43:28.646Z,44.29
2023-03-18T16:46:01.008Z,44.61
2023-03-18T16:48:31.411Z,44.77
2023-03-18T16:51:02.518Z,44.86
2023-03-18T16:53:32.427Z,45.03
2023-03-18T16:56:03.355Z,45.03
2023-03-18T16:58:35.472Z,45.31
2023-03-18T17:01:06.315Z,45.45
2023-03-18T17:03:37.258Z,45.49
2023-03-18T17:06:06.957Z,45.78
2023-03-18T17:08:36.795Z,46.06
2023-03-18T17:11:06.384Z,46.38
2023-03-18T17:13:37.956Z,46.59
2023-03-18T17:16:06.976Z,46.53
2023-03-18T17:18:36.746Z,46.55
2023-03-18T17:21:05.746Z,46.77
2023-03-18T17:23:34.469Z,46.99
2023-03-18T17:26:05.019Z,46.79
2023-03-18T17:28:37.238Z,46.79
2023-03-18T17:31:06.191Z,46.89
2023-03-18T17:33:37.838Z,46.84
2023-03-18T17:36:08.149Z,46.75
2023-03-18T17:38:36.942Z,46.57
2023-03-18T17:41:13.899Z,46.83
2023-03-18T17:43:42.500Z,46.94
2023-03-18T17:46:10.966Z,47.13
2023-03-18T17:48:41.299Z,47.31
2023-03-18T17:51:16.791Z,47.46
2023-03-18T17:53:48.422Z,47.48
2023-03-18T17:56:18.548Z,47.89
2023-03-18T17:58:49.760Z,47.87
2023-03-18T18:01:20.526Z,48.05
2023-03-18T18:03:50.514Z,48.13
2023-03-18T18:06:21.070Z,48.43
2023-03-18T18:08:50.229Z,48.67
2023-03-18T18:11:21.488Z,49.07
2023-03-18T18:13:51.672Z,49.05
2023-03-18T18:16:20.323Z,49.07
2023-03-18T18:18:50.333Z,49.17
2023-03-18T18:21:21.914Z,49.25
2023-03-18T18:23:50.558Z,49.33
2023-03-18T18:26:21.587Z,49.23
2023-03-18T18:28:51.923Z,49.33
2023-03-18T18:31:23.044Z,49.67
2023-03-18T18:33:55.843Z,49.43
2023-03-18T18:36:28.198Z,49.46
2023-03-18T18:38:57.246Z,49.46
2023-03-18T18:41:26.179Z,49.46
2023-03-18T18:43:55.665Z,49.61
2023-03-18T18:46:25.187Z,49.59
2023-03-18T18:48:55.075Z,49.64
2023-03-18T18:51:25.210Z,49.67
2023-03-18T18:53:54.872Z,49.59
2023-03-18T18:56:34.928Z,49.73
2023-03-18T18:59:05.286Z,49.65
2023-03-18T19:01:33.608Z,49.49
2023-03-18T19:04:04.420Z,49.48
2023-03-18T19:06:34.293Z,49.43
2023-03-18T19:09:05.228Z,49.34
2023-03-18T19:11:33.773Z,49.33
2023-03-18T19:14:20.147Z,49.13
2023-03-18T19:16:50.320Z,49.10
2023-03-18T19:19:24.186Z,49.10
2023-03-18T19:21:52.555Z,49.13
2023-03-18T19:24:30.896Z,49.07
2023-03-18T19:27:03.449Z,49.05
2023-03-18T19:29:34.756Z,48.84
2023-03-18T19:32:05.047Z,48.66
2023-03-18T19:34:36.278Z,48.65
2023-03-18T19:37:06.451Z,48.79
2023-03-18T19:39:36.142Z,48.66
2023-03-18T19:42:06.007Z,48.62
2023-03-18T19:44:35.917Z,48.60
2023-03-18T19:47:05.495Z,48.45
2023-03-18T19:49:39.895Z,48.40
2023-03-18T19:52:24.225Z,48.40
2023-03-18T19:54:54.790Z,48.14
2023-03-18T19:57:28.531Z,48.16
2023-03-18T19:59:58.738Z,48.42
2023-03-18T20:02:30.444Z,48.38
2023-03-18T20:05:03.579Z,47.96
2023-03-18T20:07:34.508Z,47.97
2023-03-18T20:10:04.636Z,48.11
2023-03-18T20:12:38.657Z,47.99
2023-03-18T20:15:13.158Z,47.95
2023-03-18T20:17:42.620Z,48.07
2023-03-18T20:20:17.336Z,47.96
2023-03-18T20:22:50.224Z,48.00
2023-03-18T20:25:23.149Z,47.95
2023-03-18T20:27:56.579Z,47.76
2023-03-18T20:30:29.104Z,47.71
2023-03-18T20:33:00.468Z,47.71
2023-03-18T20:35:33.462Z,47.53
2023-03-18T20:38:06.968Z,47.45
2023-03-18T20:40:36.725Z,47.30
2023-03-18T20:43:06.650Z,47.14
2023-03-18T20:45:36.361Z,47.17
2023-03-18T20:48:08.122Z,47.25
2023-03-18T20:50:40.277Z,47.14
2023-03-18T20:53:17.173Z,47.19
2023-03-18T20:55:47.489Z,47.01
2023-03-18T20:58:18.496Z,46.90
2023-03-18T21:00:48.497Z,46.94
2023-03-18T21:03:25.685Z,46.77
2023-03-18T21:05:58.559Z,46.62
2023-03-18T21:08:29.433Z,46.67
2023-03-18T21:11:02.012Z,46.51
2023-03-18T21:13:33.673Z,46.50
2023-03-18T21:16:04.150Z,46.55
2023-03-18T21:18:33.780Z,46.82
2023-03-18T21:21:05.873Z,46.56
2023-03-18T21:23:36.838Z,46.48
2023-03-18T21:26:05.232Z,46.48
2023-03-18T21:28:33.610Z,46.34
2023-03-18T21:31:03.428Z,46.30
2023-03-18T21:33:33.651Z,46.25
2023-03-18T21:36:04.073Z,46.17
2023-03-18T21:38:35.030Z,46.05
2023-03-18T21:41:03.680Z,46.07
2023-03-18T21:43:34.847Z,45.82
2023-03-18T21:46:04.950Z,46.11
2023-03-18T21:48:33.603Z,46.10
2023-03-18T21:51:03.581Z,46.27
2023-03-18T21:53:32.041Z,46.40
2023-03-18T21:56:00.618Z,46.52
2023-03-18T21:58:29.250Z,46.66
2023-03-18T22:01:00.229Z,46.76
2023-03-18T22:03:31.136Z,46.92
2023-03-18T22:05:59.551Z,47.01
2023-03-18T22:08:29.330Z,47.22
2023-03-18T22:10:57.972Z,47.02
2023-03-18T22:13:28.332Z,46.97
2023-03-18T22:15:57.874Z,47.16
2023-03-18T22:18:26.987Z,47.08
2023-03-18T22:20:56.368Z,47.00
2023-03-18T22:23:27.386Z,46.71
2023-03-18T22:25:58.795Z,46.84
2023-03-18T22:28:28.292Z,46.97
2023-03-18T22:30:57.448Z,46.71
2023-03-18T22:33:27.613Z,46.44
2023-03-18T22:35:56.300Z,45.97
2023-03-18T22:38:25.896Z,45.70
2023-03-18T22:40:57.777Z,45.57
2023-03-18T22:43:31.703Z,45.38
2023-03-18T22:46:01.499Z,45.17
2023-03-18T22:48:30.032Z,44.99
2023-03-18T22:51:00.245Z,44.57
2023-03-18T22:53:31.182Z,44.44
2023-03-18T22:56:05.800Z,44.42
2023-03-18T22:58:34.178Z,44.34
2023-03-18T23:01:02.573Z,44.44
2023-03-18T23:03:33.879Z,44.59
2023-03-18T23:06:03.611Z,44.10
2023-03-18T23:08:32.448Z,44.20
2023-03-18T23:11:03.739Z,44.00
2023-03-18T23:13:36.370Z,44.13
2023-03-18T23:16:05.809Z,44.00
2023-03-18T23:18:34.198Z,44.09
2023-03-18T23:21:02.994Z,44.02
2023-03-18T23:23:31.897Z,44.02
2023-03-18T23:26:02.111Z,44.01
2023-03-18T23:28:31.881Z,44.19
2023-03-18T23:31:00.233Z,44.10
2023-03-18T23:33:28.575Z,44.03
2023-03-18T23:35:56.958Z,44.09
2023-03-18T23:38:25.658Z,44.04
2023-03-18T23:40:53.919Z,43.94
2023-03-18T23:43:24.183Z,43.78
2023-03-18T23:45:52.591Z,43.85
2023-03-18T23:49:15.392Z,43.60
2023-03-18T23:51:43.833Z,43.72
2023-03-18T23:54:12.131Z,43.71
2023-03-18T23:56:40.581Z,43.61
2023-03-18T23:59:10.544Z,43.65
